This is the latest recevied weather packets stored in our database for station/object OE5WWO. If no packets are shown the sender has not sent any weather packets the latest 10 day(s).
| Time | Temp. | Humidity | Pressure | Rain* | Wind** | Luminosity | Snow |
|---|---|---|---|---|---|---|---|
| 1778008842 | 15.56° C | 81% | 1005.6 hPa | 2.03 mm | - | - | - |
| 1778008560 | 16.11° C | 80% | 1005.9 hPa | 2.54 mm | - | - | - |
| 1778008239 | 16.11° C | 80% | 1005.9 hPa | 2.29 mm | - | - | - |
| 1778007341 | 16.11° C | 80% | 1005.8 hPa | 2.03 mm | - | - | - |
| 1778006748 | 16.11° C | 78% | 1005.5 hPa | 1.78 mm | - | - | - |
| 1778006440 | 16.67° C | 76% | 1005.4 hPa | 1.78 mm | - | - | - |
| 1778005854 | 17.22° C | 76% | 1005.1 hPa | 1.02 mm | - | - | - |
| 1778003439 | 23.33° C | 45% | 1003.1 hPa | 0 mm | - | - | - |
| 1778000139 | 25° C | 36% | 1002.7 hPa | 0 mm | - | - | - |
| 1777999554 | 25.56° C | 36% | 1002.8 hPa | 0 mm | - | - | - |
| 1777998940 | 25.56° C | 36% | 1002.8 hPa | 0 mm | - | - | - |
| 1777998037 | 25.56° C | 34% | 1002.9 hPa | 0 mm | - | - | - |
| 1777994439 | 27.22° C | 31% | 1003.3 hPa | 0 mm | - | - | - |
| 1777993542 | 27.22° C | 32% | 1003.5 hPa | 0 mm | - | - | - |
| 1777992355 | 27.78° C | 30% | 1003.6 hPa | 0 mm | - | - | - |
| 1777991452 | 27.78° C | 30% | 1003.9 hPa | 0 mm | - | - | - |
| 1777991137 | 28.33° C | 31% | 1003.8 hPa | 0 mm | - | - | - |
| 1777990844 | 28.33° C | 29% | 1003.9 hPa | 0 mm | - | - | - |
| 1777989937 | 27.78° C | 29% | 1004.1 hPa | 0 mm | - | - | - |
| 1777988759 | 28.89° C | 28% | 1004.3 hPa | 0 mm | - | - | - |
| 1777988137 | 28.89° C | 29% | 1004.3 hPa | 0 mm | - | - | - |
| 1777986637 | 28.33° C | 34% | 1004.5 hPa | 0 mm | - | - | - |
| 1777986337 | 28.33° C | 30% | 1004.6 hPa | 0 mm | - | - | - |
| 1777984257 | 26.67° C | 31% | 1005.2 hPa | 0 mm | - | - | - |
| 1777983944 | 26.67° C | 30% | 1005.2 hPa | 0 mm | - | - | - |
* Rain latest hour (hover to see other rain measurements)
** Current wind speed in m/s (hover to see current wind gust speed)